Time;durP1;ratioP1;P1;durP2;ratioP2;P2;SDS_P1;SDS_P2;PMS_P1;PMS_P2;Temp;Humidity;BMP_temperature;BMP_pressure;BME280_temperature;BME280_humidity;BME280_pressure;Samples;Min_cycle;Max_cycle;Signal;HPM_P1;HPM_P2
2022/03/19 00:01:00;;;;;;;65.72;49.17;;;17.40;53.50;;;;;;4991743;27;91093;-72
2022/03/19 00:03:26;;;;;;;66.10;49.08;;;17.40;53.50;;;;;;4988117;28;90453;-72
2022/03/19 00:05:52;;;;;;;66.30;49.35;;;17.40;53.80;;;;;;4985379;28;94404;-72
2022/03/19 00:08:19;;;;;;;66.10;49.53;;;17.40;53.80;;;;;;4988551;28;90336;-72
2022/03/19 00:10:45;;;;;;;64.97;49.25;;;17.40;53.70;;;;;;4985119;28;91115;-72
2022/03/19 00:13:11;;;;;;;66.53;49.22;;;17.30;53.60;;;;;;4996618;28;89601;-72
2022/03/19 00:15:37;;;;;;;65.93;49.35;;;17.30;53.80;;;;;;4976937;28;91428;-72
2022/03/19 00:18:03;;;;;;;65.70;49.25;;;17.30;53.80;;;;;;4990020;28;90625;-73
2022/03/19 00:20:31;;;;;;;65.63;49.35;;;17.30;53.80;;;;;;4981011;28;91018;-72
2022/03/19 00:22:57;;;;;;;64.78;49.03;;;17.30;53.80;;;;;;4985497;28;90983;-72
2022/03/19 00:25:23;;;;;;;66.50;49.63;;;17.30;54.40;;;;;;4975103;28;91195;-72
2022/03/19 00:27:48;;;;;;;65.20;49.13;;;17.30;53.90;;;;;;4985934;28;90785;-73
2022/03/19 00:30:14;;;;;;;64.97;48.75;;;17.30;53.90;;;;;;4980935;28;91526;-72
2022/03/19 00:32:40;;;;;;;66.00;48.97;;;17.20;54.00;;;;;;4987780;28;91815;-72
2022/03/19 00:35:07;;;;;;;64.80;49.00;;;17.20;53.90;;;;;;4979600;28;91016;-72
2022/03/19 00:37:46;;;;;;;64.93;49.03;;;17.20;53.90;;;;;;4985286;28;89229;-73
2022/03/19 00:40:14;;;;;;;66.15;49.17;;;17.20;53.90;;;;;;4981207;28;90112;-71
2022/03/19 00:42:41;;;;;;;64.80;48.90;;;17.20;53.80;;;;;;4979371;28;89976;-72
2022/03/19 00:45:08;;;;;;;64.22;48.75;;;17.20;53.90;;;;;;4985220;28;91062;-72
2022/03/19 00:47:34;;;;;;;64.90;48.95;;;17.20;54.00;;;;;;4985975;28;93344;-72
2022/03/19 00:50:00;;;;;;;65.50;49.33;;;17.10;54.00;;;;;;4983206;28;90450;-72
2022/03/19 00:52:26;;;;;;;66.53;48.97;;;17.10;53.90;;;;;;4979757;28;90660;-72
2022/03/19 00:54:51;;;;;;;64.60;48.88;;;17.10;54.10;;;;;;4981305;28;91189;-72
2022/03/19 00:57:17;;;;;;;64.65;48.95;;;17.10;54.00;;;;;;4979846;28;96960;-72
2022/03/19 00:59:42;;;;;;;65.00;49.05;;;17.10;54.10;;;;;;4992583;28;89871;-72
2022/03/19 01:02:08;;;;;;;64.55;48.83;;;17.10;54.00;;;;;;4991985;28;89391;-72
2022/03/19 01:04:34;;;;;;;65.30;49.05;;;17.10;54.10;;;;;;4989230;28;90102;-72
2022/03/19 01:06:59;;;;;;;64.85;48.65;;;17.00;54.00;;;;;;4967891;28;91741;-72
2022/03/19 01:09:25;;;;;;;65.55;48.90;;;17.00;54.10;;;;;;4994030;28;91429;-72
2022/03/19 01:11:51;;;;;;;64.45;48.78;;;17.00;54.10;;;;;;4987940;28;89751;-72
2022/03/19 01:14:17;;;;;;;65.15;48.83;;;17.00;54.10;;;;;;4988827;28;91846;-72
2022/03/19 01:16:43;;;;;;;64.75;48.78;;;16.90;54.10;;;;;;4989648;28;92643;-72
2022/03/19 01:19:08;;;;;;;63.88;48.53;;;17.00;54.20;;;;;;4982821;28;91734;-72
2022/03/19 01:21:35;;;;;;;66.15;48.80;;;17.00;54.20;;;;;;4989265;28;90024;-72
2022/03/19 01:24:02;;;;;;;64.80;48.92;;;17.00;54.30;;;;;;4984995;28;90575;-72
2022/03/19 01:26:27;;;;;;;63.72;48.28;;;16.90;54.10;;;;;;4994988;28;90194;-71
2022/03/19 01:28:53;;;;;;;64.03;48.30;;;16.90;54.10;;;;;;4986982;28;90738;-72
2022/03/19 01:31:21;;;;;;;65.28;48.95;;;16.90;54.20;;;;;;4988161;28;92188;-72
2022/03/19 01:33:47;;;;;;;64.05;48.53;;;16.90;54.20;;;;;;4987766;28;92065;-72
2022/03/19 01:36:12;;;;;;;64.30;48.67;;;16.90;54.20;;;;;;4981209;28;89892;-72
2022/03/19 01:38:38;;;;;;;64.22;48.60;;;16.90;54.20;;;;;;4988622;28;90265;-72
2022/03/19 01:41:03;;;;;;;64.15;48.45;;;16.90;54.20;;;;;;4979914;28;91777;-72
2022/03/19 01:43:29;;;;;;;65.05;48.70;;;16.90;54.30;;;;;;4994413;28;90608;-72
2022/03/19 01:45:55;;;;;;;64.30;48.50;;;16.90;54.20;;;;;;4988621;28;91669;-72
2022/03/19 01:48:21;;;;;;;64.35;48.75;;;16.90;54.20;;;;;;4986122;28;89915;-72
2022/03/19 01:50:46;;;;;;;64.32;48.72;;;17.00;54.10;;;;;;4979567;28;91837;-72
2022/03/19 01:53:12;;;;;;;64.63;48.97;;;17.00;53.90;;;;;;4983119;28;91984;-72
2022/03/19 01:55:38;;;;;;;64.82;48.75;;;17.00;53.90;;;;;;4980232;28;90857;-73
2022/03/19 01:58:04;;;;;;;64.00;48.47;;;17.00;53.90;;;;;;4988749;28;91890;-72
2022/03/19 02:00:29;;;;;;;65.28;48.78;;;17.00;53.90;;;;;;4986491;28;90261;-72
2022/03/19 02:02:56;;;;;;;64.97;48.83;;;17.10;53.90;;;;;;4979010;28;92682;-72
2022/03/19 02:05:23;;;;;;;64.03;48.47;;;17.10;53.90;;;;;;4987209;28;90242;-72
2022/03/19 02:07:51;;;;;;;64.75;48.80;;;17.10;53.80;;;;;;4983064;28;90309;-72
2022/03/19 02:10:19;;;;;;;64.45;48.83;;;17.20;53.70;;;;;;4983713;28;89880;-72
2022/03/19 02:12:45;;;;;;;64.55;48.85;;;17.20;53.70;;;;;;4987967;28;90986;-72
2022/03/19 02:15:13;;;;;;;63.90;48.70;;;17.20;53.60;;;;;;4989875;28;90221;-72
2022/03/19 02:17:39;;;;;;;64.25;48.85;;;17.20;53.50;;;;;;4987741;28;90715;-72
2022/03/19 02:20:06;;;;;;;64.55;48.70;;;17.20;53.50;;;;;;4985072;28;90796;-72
2022/03/19 02:22:32;;;;;;;64.95;48.88;;;17.20;53.30;;;;;;4979578;28;93718;-72
2022/03/19 02:27:43;;;;;;;63.92;49.05;;;17.20;53.30;;;;;;4984958;28;92463;-72
2022/03/19 02:30:12;;;;;;;64.53;48.83;;;17.20;53.20;;;;;;4985207;28;90372;-72
2022/03/19 02:32:43;;;;;;;64.80;49.05;;;17.20;53.20;;;;;;4982596;28;90370;-72
2022/03/19 02:35:10;;;;;;;64.20;48.65;;;17.20;53.30;;;;;;4981089;28;90403;-72
2022/03/19 02:37:41;;;;;;;63.63;48.58;;;17.20;53.30;;;;;;4980226;28;90874;-72
2022/03/19 02:40:15;;;;;;;63.60;48.75;;;17.10;53.30;;;;;;4983128;28;89732;-72
2022/03/19 02:42:41;;;;;;;63.47;48.53;;;17.20;53.30;;;;;;4975023;28;92272;-72
2022/03/19 02:45:08;;;;;;;64.50;48.85;;;17.10;53.30;;;;;;4978843;28;93121;-72
2022/03/19 02:47:57;;;;;;;63.75;48.60;;;17.10;53.20;;;;;;4992531;27;91259;-73
2022/03/19 02:50:21;;;;;;;65.45;49.03;;;17.10;53.30;;;;;;4985721;28;89928;-72
2022/03/19 02:52:47;;;;;;;63.92;48.65;;;17.10;53.20;;;;;;4988033;28;90032;-72
2022/03/19 02:55:12;;;;;;;63.60;48.65;;;17.00;53.10;;;;;;4990521;28;90943;-72
2022/03/19 02:57:38;;;;;;;66.25;48.83;;;17.00;53.30;;;;;;4982969;27;89763;-72
2022/03/19 03:00:05;;;;;;;63.85;48.72;;;17.00;53.30;;;;;;4985386;28;90719;-72
2022/03/19 03:02:30;;;;;;;64.32;48.55;;;17.00;53.30;;;;;;4981884;28;96472;-72
2022/03/19 03:04:56;;;;;;;64.28;48.67;;;17.00;53.50;;;;;;4987634;28;90469;-72
2022/03/19 03:07:21;;;;;;;63.95;48.67;;;17.00;53.40;;;;;;4985121;28;90397;-72
2022/03/19 03:09:48;;;;;;;63.97;48.70;;;17.00;53.40;;;;;;4980515;28;90221;-72
2022/03/19 03:12:14;;;;;;;63.08;48.45;;;16.90;53.40;;;;;;4977478;28;90869;-72
2022/03/19 03:14:39;;;;;;;63.67;48.65;;;16.90;53.40;;;;;;4983204;28;90744;-72
2022/03/19 03:17:05;;;;;;;63.38;48.40;;;16.90;53.80;;;;;;4978291;28;94258;-73
2022/03/19 03:19:32;;;;;;;63.95;48.70;;;16.80;53.30;;;;;;4987138;28;89961;-72
2022/03/19 03:21:58;;;;;;;63.50;48.60;;;16.90;53.50;;;;;;4976972;28;92815;-72
2022/03/19 03:24:24;;;;;;;64.18;48.65;;;16.80;53.50;;;;;;4991573;28;90066;-72
2022/03/19 03:26:50;;;;;;;64.40;48.58;;;16.80;53.60;;;;;;4981887;28;90744;-72
2022/03/19 03:29:16;;;;;;;63.88;48.85;;;16.80;53.50;;;;;;4977879;28;89424;-72
2022/03/19 03:31:42;;;;;;;63.80;48.78;;;16.80;53.50;;;;;;4983706;28;91109;-72
2022/03/19 03:34:07;;;;;;;63.03;48.22;;;16.80;53.60;;;;;;4984308;28;91722;-72
2022/03/19 03:36:34;;;;;;;63.10;48.53;;;16.70;53.60;;;;;;4988427;28;90941;-72
2022/03/19 03:38:59;;;;;;;63.13;48.53;;;16.70;53.60;;;;;;4982967;28;90464;-72
2022/03/19 03:41:25;;;;;;;64.00;48.63;;;16.70;53.60;;;;;;4992214;28;91243;-72
2022/03/19 03:43:51;;;;;;;64.45;48.92;;;16.70;53.60;;;;;;4982639;28;93670;-72
2022/03/19 03:46:16;;;;;;;63.83;48.50;;;16.70;53.70;;;;;;4985924;28;89508;-72
2022/03/19 03:48:42;;;;;;;64.07;48.63;;;16.60;53.60;;;;;;4984684;28;91151;-72
2022/03/19 03:51:11;;;;;;;62.83;48.22;;;16.60;53.70;;;;;;4986299;28;90778;-72
2022/03/19 03:53:37;;;;;;;63.35;48.40;;;16.60;53.70;;;;;;4982330;28;95711;-72
2022/03/19 03:56:04;;;;;;;63.40;48.45;;;16.60;53.70;;;;;;4981336;28;90968;-72
2022/03/19 03:58:30;;;;;;;63.35;48.65;;;16.60;53.80;;;;;;4980941;28;90235;-72
2022/03/19 04:00:56;;;;;;;64.35;48.53;;;16.50;53.70;;;;;;4984294;28;91229;-72
2022/03/19 04:03:22;;;;;;;63.05;48.60;;;16.50;53.70;;;;;;4978130;28;90415;-72
2022/03/19 04:05:49;;;;;;;63.78;48.50;;;16.60;53.90;;;;;;4985756;28;90159;-72
2022/03/19 04:08:15;;;;;;;63.50;48.78;;;16.50;53.80;;;;;;4975016;28;90207;-72
2022/03/19 04:10:41;;;;;;;63.72;48.80;;;16.50;53.80;;;;;;4991693;28;90111;-72
2022/03/19 04:13:06;;;;;;;63.17;48.42;;;16.60;54.00;;;;;;4984472;28;89826;-72
2022/03/19 04:15:32;;;;;;;63.40;48.40;;;16.60;53.80;;;;;;4984468;28;90258;-72
2022/03/19 04:17:58;;;;;;;63.78;48.67;;;16.60;53.80;;;;;;4982118;28;91739;-72
2022/03/19 04:20:24;;;;;;;63.65;48.78;;;16.60;53.90;;;;;;4984388;28;90525;-72
2022/03/19 04:22:51;;;;;;;63.35;48.55;;;16.60;53.70;;;;;;4986698;28;90304;-72
2022/03/19 04:25:22;;;;;;;64.78;48.75;;;16.60;53.80;;;;;;4979769;28;94970;-72
2022/03/19 04:27:50;;;;;;;64.53;48.78;;;16.70;53.70;;;;;;4985539;28;91549;-72
2022/03/19 04:30:18;;;;;;;63.35;48.20;;;16.70;53.60;;;;;;4989903;28;90743;-72
2022/03/19 04:32:49;;;;;;;63.38;48.35;;;16.70;53.60;;;;;;4985685;28;90027;-72
2022/03/19 04:38:06;;;;;;;63.35;48.47;;;16.70;53.50;;;;;;4972934;28;90902;-72
2022/03/19 04:40:33;;;;;;;63.00;48.45;;;16.70;53.50;;;;;;4985538;28;90548;-72
2022/03/19 04:42:58;;;;;;;63.13;48.53;;;16.70;53.50;;;;;;4984775;28;90640;-72
2022/03/19 04:45:25;;;;;;;63.20;48.35;;;16.70;53.40;;;;;;4984782;28;90027;-72
2022/03/19 04:47:51;;;;;;;63.38;48.33;;;16.70;53.50;;;;;;4981625;28;95928;-70
2022/03/19 04:50:17;;;;;;;62.88;48.15;;;16.70;53.40;;;;;;4984701;28;90412;-70
2022/03/19 04:52:43;;;;;;;63.33;48.42;;;16.70;53.30;;;;;;4979141;27;90503;-71
2022/03/19 04:55:10;;;;;;;62.97;48.35;;;16.70;53.40;;;;;;4972669;28;90273;-71
2022/03/19 04:57:36;;;;;;;62.58;48.28;;;16.70;53.40;;;;;;4993169;28;89977;-71
2022/03/19 05:00:04;;;;;;;63.03;48.45;;;16.70;53.30;;;;;;4980367;28;90154;-70
2022/03/19 05:02:30;;;;;;;62.33;48.03;;;16.70;53.40;;;;;;4984837;28;90687;-71
2022/03/19 05:04:56;;;;;;;62.85;48.65;;;16.60;53.30;;;;;;4979541;28;90710;-71
2022/03/19 05:07:23;;;;;;;63.15;48.35;;;16.60;53.40;;;;;;4986460;28;88806;-71
2022/03/19 05:12:36;;;;;;;62.83;47.90;;;16.60;53.30;;;;;;4985216;28;89585;-70
2022/03/19 05:15:03;;;;;;;63.63;48.60;;;16.60;53.40;;;;;;4979294;28;91247;-71
2022/03/19 05:17:29;;;;;;;63.70;48.80;;;16.60;53.50;;;;;;4993219;27;90901;-71
2022/03/19 05:19:55;;;;;;;63.67;48.42;;;16.60;53.70;;;;;;4982749;28;90728;-71
2022/03/19 05:22:20;;;;;;;62.22;48.25;;;16.60;53.70;;;;;;4980416;28;90883;-71
2022/03/19 05:24:46;;;;;;;63.20;48.40;;;16.60;53.70;;;;;;4988757;28;90807;-70
2022/03/19 05:27:12;;;;;;;62.35;48.15;;;16.70;53.90;;;;;;4985631;28;90246;-71
2022/03/19 05:29:39;;;;;;;62.25;48.33;;;16.70;53.80;;;;;;4982948;28;90129;-71
2022/03/19 05:32:06;;;;;;;62.90;48.08;;;16.80;53.80;;;;;;4984618;28;92900;-71
2022/03/19 05:34:32;;;;;;;62.47;48.30;;;16.80;53.90;;;;;;4984121;28;90954;-71
2022/03/19 05:36:59;;;;;;;62.75;48.30;;;16.80;53.60;;;;;;4979139;28;90856;-71
2022/03/19 05:39:26;;;;;;;63.28;48.40;;;16.90;53.60;;;;;;4973717;28;91323;-71
2022/03/19 05:41:52;;;;;;;63.03;48.13;;;16.90;53.60;;;;;;4988186;28;91970;-71
2022/03/19 05:44:18;;;;;;;63.00;48.47;;;17.00;53.70;;;;;;4981959;28;90668;-71
2022/03/19 05:46:43;;;;;;;62.60;48.22;;;17.00;53.40;;;;;;4990884;28;90287;-71
2022/03/19 05:49:09;;;;;;;62.53;48.17;;;17.10;53.40;;;;;;4977590;28;90974;-71
2022/03/19 05:51:35;;;;;;;62.65;48.25;;;17.10;53.50;;;;;;4984561;28;90276;-71
2022/03/19 05:54:00;;;;;;;63.45;48.15;;;17.20;53.40;;;;;;4983734;28;95083;-71
2022/03/19 05:56:26;;;;;;;63.38;48.33;;;17.20;53.40;;;;;;4989763;28;90143;-70
2022/03/19 05:58:52;;;;;;;63.28;48.35;;;17.20;53.10;;;;;;4980482;28;92922;-71
2022/03/19 06:01:18;;;;;;;63.72;48.35;;;17.30;53.10;;;;;;4981096;28;91126;-71
2022/03/19 06:03:43;;;;;;;63.80;48.80;;;17.40;53.10;;;;;;4985297;28;90692;-71
2022/03/19 06:06:10;;;;;;;63.80;48.58;;;17.30;53.20;;;;;;4982788;28;92140;-72
2022/03/19 06:08:35;;;;;;;64.05;48.65;;;17.40;53.00;;;;;;4987302;28;90170;-71
2022/03/19 06:11:01;;;;;;;64.50;48.60;;;17.50;53.10;;;;;;4985161;28;89847;-72
2022/03/19 06:13:27;;;;;;;62.90;48.35;;;17.50;52.90;;;;;;4992071;28;90118;-72
2022/03/19 06:15:53;;;;;;;63.70;48.58;;;17.40;52.90;;;;;;4984957;28;90402;-71
2022/03/19 06:18:18;;;;;;;63.40;48.20;;;17.50;52.80;;;;;;4986460;28;95425;-72
2022/03/19 06:20:44;;;;;;;64.35;48.85;;;17.50;52.80;;;;;;4976217;28;92272;-72
2022/03/19 06:23:09;;;;;;;63.65;48.25;;;17.50;52.50;;;;;;4987636;28;90144;-72
2022/03/19 06:25:35;;;;;;;63.40;48.42;;;17.60;52.70;;;;;;4984902;28;96918;-72
2022/03/19 06:28:02;;;;;;;64.15;48.47;;;17.60;52.60;;;;;;4987205;28;91840;-72
2022/03/19 06:30:27;;;;;;;63.28;48.55;;;17.60;52.60;;;;;;4987990;28;93579;-73
2022/03/19 06:32:53;;;;;;;63.28;48.58;;;17.60;52.60;;;;;;4984934;28;90575;-72
2022/03/19 06:38:03;;;;;;;63.38;48.35;;;17.70;52.60;;;;;;4998193;28;89908;-72
2022/03/19 06:40:29;;;;;;;63.70;48.55;;;17.70;52.50;;;;;;4977558;28;91304;-72
2022/03/19 06:42:54;;;;;;;64.13;48.58;;;17.70;52.50;;;;;;4991697;28;89819;-72
2022/03/19 06:45:20;;;;;;;64.88;48.70;;;17.70;52.30;;;;;;4977532;28;90114;-71
2022/03/19 06:47:46;;;;;;;64.35;48.75;;;17.70;52.50;;;;;;4990017;28;91952;-71
2022/03/19 06:50:11;;;;;;;64.35;48.70;;;17.70;52.50;;;;;;4987542;28;90171;-72
2022/03/19 06:52:37;;;;;;;63.50;48.55;;;17.80;52.40;;;;;;4990718;28;91197;-71
2022/03/19 06:55:03;;;;;;;64.32;48.65;;;17.80;52.40;;;;;;4985732;28;90345;-71
2022/03/19 06:57:29;;;;;;;63.95;48.60;;;17.80;52.40;;;;;;4982689;28;90478;-71
2022/03/19 06:59:54;;;;;;;65.72;48.85;;;17.80;52.30;;;;;;4992934;28;90260;-71
2022/03/19 07:02:20;;;;;;;63.65;48.42;;;17.90;52.50;;;;;;4984154;28;89713;-71
2022/03/19 07:04:46;;;;;;;64.22;48.75;;;17.90;52.40;;;;;;4988303;28;90323;-71
2022/03/19 07:07:11;;;;;;;64.47;48.70;;;17.90;52.30;;;;;;4990374;28;90101;-71
2022/03/19 07:09:37;;;;;;;64.68;48.80;;;17.90;52.40;;;;;;4989948;28;88956;-71
2022/03/19 07:12:04;;;;;;;64.50;48.63;;;18.00;52.40;;;;;;4987062;28;89963;-71
2022/03/19 07:14:29;;;;;;;63.80;48.70;;;18.00;52.30;;;;;;4985230;28;91228;-71
2022/03/19 07:16:56;;;;;;;65.13;48.83;;;18.00;52.20;;;;;;4982107;28;91376;-71
2022/03/19 07:19:21;;;;;;;64.25;48.85;;;18.00;52.20;;;;;;4992814;28;90938;-71
2022/03/19 07:21:47;;;;;;;64.97;49.03;;;18.00;52.10;;;;;;4988439;28;92579;-71
2022/03/19 07:24:13;;;;;;;64.18;48.72;;;18.00;52.00;;;;;;4990728;28;89784;-71
2022/03/19 07:26:38;;;;;;;64.32;48.83;;;18.00;52.10;;;;;;4979971;28;89963;-72
2022/03/19 07:29:04;;;;;;;64.70;48.95;;;18.00;52.10;;;;;;4974553;28;92520;-71
2022/03/19 07:31:30;;;;;;;64.60;48.85;;;18.00;51.90;;;;;;4990292;28;89665;-71
2022/03/19 07:33:56;;;;;;;64.65;48.83;;;18.10;52.00;;;;;;4986663;28;89049;-71
2022/03/19 07:36:21;;;;;;;64.28;48.55;;;18.10;52.00;;;;;;4989818;28;89812;-71
2022/03/19 07:38:47;;;;;;;64.93;48.83;;;18.10;52.10;;;;;;5003703;27;91782;-71
2022/03/19 07:44:15;;;;;;;64.77;49.07;;;18.10;52.00;;;;;;4922429;28;92518;-71
2022/03/19 07:46:42;;;;;;;64.45;48.75;;;18.10;51.90;;;;;;4975196;28;92211;-71
2022/03/19 07:49:08;;;;;;;64.40;48.95;;;18.10;51.90;;;;;;4984894;28;91353;-71
2022/03/19 07:51:34;;;;;;;64.70;48.97;;;18.10;51.90;;;;;;4977257;28;91227;-71
2022/03/19 07:53:59;;;;;;;65.90;48.97;;;18.00;51.70;;;;;;4994340;28;90077;-71
2022/03/19 07:56:25;;;;;;;64.38;48.80;;;18.10;51.90;;;;;;4981752;28;92017;-71
2022/03/19 07:58:51;;;;;;;64.88;48.95;;;18.00;51.60;;;;;;4983747;28;89391;-72
2022/03/19 08:01:20;;;;;;;64.43;48.63;;;18.00;51.90;;;;;;4980933;28;90962;-71
2022/03/19 08:03:46;;;;;;;65.82;49.25;;;18.00;51.70;;;;;;4992861;28;91269;-71
2022/03/19 08:06:12;;;;;;;64.95;48.85;;;18.10;51.90;;;;;;4981793;27;91397;-71
2022/03/19 08:08:37;;;;;;;64.57;48.72;;;18.00;51.70;;;;;;4988369;28;91058;-71
2022/03/19 08:11:04;;;;;;;65.03;48.85;;;18.00;51.70;;;;;;4988435;28;92717;-72
2022/03/19 08:13:30;;;;;;;65.32;49.25;;;18.00;51.60;;;;;;4977849;28;90972;-72
2022/03/19 08:15:56;;;;;;;65.65;49.25;;;18.00;51.50;;;;;;4980442;28;93379;-72
2022/03/19 08:18:22;;;;;;;65.40;49.25;;;18.00;51.70;;;;;;4991351;28;93296;-71
2022/03/19 08:20:47;;;;;;;64.32;48.75;;;18.00;51.70;;;;;;4987385;28;94587;-71
2022/03/19 08:23:19;;;;;;;64.80;48.95;;;18.00;51.60;;;;;;4984709;28;89383;-71
2022/03/19 08:25:45;;;;;;;65.65;49.13;;;18.00;51.60;;;;;;4988077;28;91607;-71
2022/03/19 08:28:10;;;;;;;64.30;48.95;;;18.00;51.60;;;;;;4988526;28;91387;-71
2022/03/19 08:30:37;;;;;;;65.47;49.38;;;18.00;51.80;;;;;;4984374;28;91298;-72
2022/03/19 08:33:02;;;;;;;65.65;49.30;;;17.90;51.60;;;;;;4991034;28;89663;-71
2022/03/19 08:35:28;;;;;;;65.07;49.20;;;18.00;51.80;;;;;;4976946;28;91768;-71
2022/03/19 08:40:15;;;;;;;66.10;49.42;;;17.90;51.60;;;;;;4993405;28;90231;-71
2022/03/19 08:40:39;;;;;;;64.57;48.75;;;17.90;51.50;;;;;;4979939;27;90400;-72
2022/03/19 08:43:05;;;;;;;65.53;49.10;;;17.90;51.60;;;;;;4994968;28;90405;-71
2022/03/19 08:45:31;;;;;;;65.88;49.53;;;17.90;51.60;;;;;;4991243;28;89863;-72
2022/03/19 08:47:57;;;;;;;65.10;49.38;;;17.90;51.60;;;;;;4989073;28;90095;-71
2022/03/19 08:50:24;;;;;;;64.75;49.15;;;17.90;51.60;;;;;;4988355;28;90162;-69
2022/03/19 08:52:50;;;;;;;65.40;48.97;;;17.90;51.50;;;;;;4985903;28;90189;-72
2022/03/19 08:55:15;;;;;;;65.47;49.08;;;17.90;51.70;;;;;;4986537;28;91834;-72
2022/03/19 08:57:41;;;;;;;65.05;48.95;;;17.80;51.60;;;;;;4980647;28;91059;-72
2022/03/19 09:00:08;;;;;;;64.57;49.13;;;17.80;51.60;;;;;;4980932;28;91768;-72
2022/03/19 09:02:34;;;;;;;65.38;49.22;;;17.90;51.70;;;;;;4985389;28;89901;-72
2022/03/19 09:05:00;;;;;;;64.68;49.05;;;17.80;51.60;;;;;;4994502;28;89694;-72
2022/03/19 09:07:26;;;;;;;64.63;49.10;;;17.80;51.80;;;;;;4986329;28;91717;-72
2022/03/19 09:09:54;;;;;;;65.60;49.17;;;17.90;51.90;;;;;;4987592;28;89385;-72
2022/03/19 09:12:22;;;;;;;64.72;48.97;;;17.90;51.90;;;;;;4989432;28;89025;-72
2022/03/19 09:14:48;;;;;;;64.95;49.00;;;17.90;51.80;;;;;;4983207;28;91560;-72
2022/03/19 09:17:13;;;;;;;65.55;49.25;;;17.90;51.90;;;;;;4988379;28;91870;-72
2022/03/19 09:19:39;;;;;;;64.88;48.88;;;17.90;52.00;;;;;;4984467;28;91051;-72
2022/03/19 09:22:05;;;;;;;65.22;49.15;;;18.00;51.90;;;;;;4978827;28;91609;-72
2022/03/19 09:24:30;;;;;;;65.43;49.10;;;18.00;51.80;;;;;;4989582;28;91570;-71
2022/03/19 09:26:56;;;;;;;65.60;49.05;;;18.00;51.80;;;;;;4990470;28;90267;-71
2022/03/19 09:29:22;;;;;;;64.80;48.85;;;18.00;51.80;;;;;;4987609;28;89767;-73
2022/03/19 09:31:47;;;;;;;65.35;48.95;;;18.10;51.70;;;;;;4985368;28;89987;-72
2022/03/19 09:34:13;;;;;;;65.55;48.95;;;18.10;51.70;;;;;;4976897;28;90335;-73
2022/03/19 09:36:41;;;;;;;65.72;49.28;;;18.10;51.90;;;;;;4985398;27;90240;-72
2022/03/19 09:39:07;;;;;;;66.45;49.13;;;18.10;51.90;;;;;;4983839;28;90175;-75
2022/03/19 09:41:33;;;;;;;67.03;49.28;;;18.20;51.90;;;;;;4981326;28;90896;-74
2022/03/19 09:44:00;;;;;;;66.43;49.38;;;18.20;51.90;;;;;;4990740;28;92624;-72
2022/03/19 09:46:26;;;;;;;65.55;49.15;;;18.20;51.90;;;;;;4987663;28;92857;-73
2022/03/19 09:48:53;;;;;;;65.93;49.30;;;18.20;51.80;;;;;;4982793;28;90710;-71
2022/03/19 09:51:19;;;;;;;74.22;51.38;;;18.30;51.80;;;;;;4979055;28;91195;-71
2022/03/19 09:53:46;;;;;;;77.15;52.38;;;18.40;52.30;;;;;;4971823;28;91122;-75
2022/03/19 09:56:12;;;;;;;76.93;52.53;;;18.50;52.40;;;;;;4980653;28;93892;-74
2022/03/19 09:58:37;;;;;;;78.32;52.97;;;18.60;52.30;;;;;;4984633;28;90837;-73
2022/03/19 10:01:05;;;;;;;78.28;52.40;;;18.60;52.00;;;;;;4974133;28;90271;-74
2022/03/19 10:03:38;;;;;;;75.43;52.50;;;18.70;51.70;;;;;;4976048;28;91740;-74
2022/03/19 10:08:57;;;;;;;77.28;53.15;;;18.90;51.30;;;;;;4981040;28;91924;-74
2022/03/19 10:11:23;;;;;;;79.22;52.97;;;19.00;51.00;;;;;;4978937;28;90907;-75
2022/03/19 10:13:50;;;;;;;76.95;52.65;;;19.10;50.80;;;;;;4983944;28;90579;-74
2022/03/19 10:16:25;;;;;;;77.28;52.85;;;19.10;50.70;;;;;;4978836;27;90736;-75
2022/03/19 10:18:59;;;;;;;75.70;52.83;;;19.20;50.50;;;;;;4977490;28;89786;-74
2022/03/19 10:21:27;;;;;;;78.53;53.28;;;19.20;50.50;;;;;;4971595;28;90949;-74
2022/03/19 10:23:55;;;;;;;80.07;53.22;;;19.30;50.30;;;;;;4986275;28;94617;-73
2022/03/19 10:26:30;;;;;;;76.60;52.45;;;19.30;50.20;;;;;;4989322;28;92592;-74
2022/03/19 10:28:59;;;;;;;78.78;52.85;;;19.30;50.10;;;;;;4985605;28;90367;-74
2022/03/19 10:31:44;;;;;;;80.55;53.00;;;19.40;49.90;;;;;;4981089;28;91160;-75
2022/03/19 10:34:10;;;;;;;78.60;52.92;;;19.50;49.70;;;;;;4980831;28;91994;-74
2022/03/19 10:36:39;;;;;;;78.03;53.05;;;19.50;49.50;;;;;;4990127;28;91056;-74
2022/03/19 10:39:31;;;;;;;77.55;53.03;;;19.60;49.40;;;;;;4995495;28;90249;-75
2022/03/19 10:41:58;;;;;;;76.97;52.80;;;19.60;49.20;;;;;;4992888;28;90533;-71
2022/03/19 10:44:30;;;;;;;77.93;52.83;;;19.60;49.00;;;;;;4984150;28;91569;-73
2022/03/19 10:46:58;;;;;;;78.47;53.00;;;19.70;48.80;;;;;;4993327;28;89775;-74
2022/03/19 10:49:26;;;;;;;76.00;52.97;;;19.70;48.60;;;;;;4983913;28;90543;-72
2022/03/19 10:51:57;;;;;;;77.28;53.08;;;19.70;48.60;;;;;;4991332;28;89300;-74
2022/03/19 10:54:24;;;;;;;77.05;52.50;;;19.80;48.40;;;;;;4994072;28;89996;-75
2022/03/19 10:56:51;;;;;;;74.35;52.53;;;19.80;48.30;;;;;;5002001;28;89873;-75
2022/03/19 10:59:18;;;;;;;76.72;52.97;;;19.80;48.20;;;;;;4991177;28;90899;-75
2022/03/19 11:01:46;;;;;;;74.88;52.50;;;19.80;48.00;;;;;;4983251;28;91048;-75
2022/03/19 11:04:12;;;;;;;76.57;52.47;;;19.90;47.90;;;;;;4992525;28;90557;-75
2022/03/19 11:06:40;;;;;;;74.53;52.72;;;19.90;47.70;;;;;;4987545;28;91446;-75
2022/03/19 11:09:09;;;;;;;74.60;52.53;;;19.90;47.50;;;;;;4992516;28;89631;-75
2022/03/19 11:11:44;;;;;;;76.93;52.65;;;19.90;47.40;;;;;;4987136;28;90552;-75
2022/03/19 11:14:13;;;;;;;75.30;52.45;;;19.90;47.20;;;;;;4992249;28;90623;-75
2022/03/19 11:16:41;;;;;;;73.97;52.13;;;19.90;47.00;;;;;;4985399;28;91847;-72
2022/03/19 11:19:08;;;;;;;77.50;52.15;;;19.90;46.90;;;;;;4981812;28;89622;-72
2022/03/19 11:21:34;;;;;;;74.93;52.40;;;20.00;47.00;;;;;;4982071;27;90166;-73
2022/03/19 11:24:19;;;;;;;75.00;52.60;;;20.00;47.00;;;;;;4992959;28;92020;-71
2022/03/19 11:26:44;;;;;;;79.47;51.95;;;20.00;47.00;;;;;;4983857;27;90257;-73
2022/03/19 11:29:11;;;;;;;79.10;52.20;;;20.00;46.90;;;;;;4984591;27;90700;-73
2022/03/19 11:31:37;;;;;;;77.43;52.00;;;20.00;47.00;;;;;;4979310;28;92490;-73
2022/03/19 11:34:17;;;;;;;76.82;52.35;;;20.00;46.90;;;;;;4985984;28;93022;-74
2022/03/19 11:37:00;;;;;;;72.85;52.00;;;20.00;46.80;;;;;;4978164;28;92716;-74
2022/03/19 11:39:27;;;;;;;73.28;51.38;;;20.00;46.70;;;;;;4996804;28;91739;-74
2022/03/19 11:41:53;;;;;;;74.72;51.78;;;20.00;46.60;;;;;;4987058;28;89219;-74
2022/03/19 11:44:24;;;;;;;75.88;51.72;;;20.00;46.50;;;;;;4984171;28;90050;-73
2022/03/19 11:47:13;;;;;;;73.23;51.80;;;20.10;46.40;;;;;;4988929;28;90848;-74
2022/03/19 11:49:49;;;;;;;73.75;51.80;;;20.10;46.20;;;;;;4987174;28;90591;-73
2022/03/19 11:52:44;;;;;;;72.60;51.65;;;20.00;46.00;;;;;;4975858;28;90957;-73
2022/03/19 11:55:11;;;;;;;74.18;51.78;;;20.10;45.90;;;;;;4987529;28;90416;-74
2022/03/19 11:57:46;;;;;;;73.85;51.58;;;20.10;45.80;;;;;;4994101;28;91033;-74
2022/03/19 12:00:16;;;;;;;75.80;51.50;;;20.00;45.60;;;;;;4990394;28;91267;-73
2022/03/19 12:03:08;;;;;;;73.20;51.37;;;20.10;45.50;;;;;;4978335;28;92421;-73
2022/03/19 12:05:35;;;;;;;73.68;51.35;;;20.10;45.40;;;;;;4993109;28;91609;-73
2022/03/19 12:08:07;;;;;;;73.05;51.38;;;20.10;45.20;;;;;;4992455;28;90110;-73
2022/03/19 12:10:38;;;;;;;72.18;51.33;;;20.00;45.00;;;;;;4986404;28;90443;-73
2022/03/19 12:13:34;;;;;;;73.85;51.72;;;20.10;44.90;;;;;;4983072;28;91522;-74
2022/03/19 12:16:04;;;;;;;72.97;51.25;;;20.00;44.70;;;;;;4990398;28;91123;-73
2022/03/19 12:18:42;;;;;;;75.70;51.47;;;20.00;44.70;;;;;;4989488;28;90990;-73
2022/03/19 12:21:11;;;;;;;73.15;51.25;;;20.00;44.50;;;;;;4978818;28;89847;-74
2022/03/19 12:23:50;;;;;;;73.07;51.00;;;20.00;44.60;;;;;;4967905;28;90624;-72
2022/03/19 12:26:20;;;;;;;71.97;51.10;;;20.00;44.50;;;;;;4975045;28;90331;-72
2022/03/19 12:29:00;;;;;;;73.25;51.00;;;20.00;44.10;;;;;;4964558;28;93018;-76
2022/03/19 12:31:31;;;;;;;76.88;51.08;;;20.00;44.10;;;;;;4975265;28;91198;-75
2022/03/19 12:33:58;;;;;;;73.28;51.03;;;20.00;44.00;;;;;;4975597;28;91400;-75
2022/03/19 12:36:24;;;;;;;74.93;51.35;;;20.00;44.00;;;;;;4977337;27;91898;-74
2022/03/19 12:38:50;;;;;;;72.50;51.28;;;20.00;44.50;;;;;;4971683;28;90950;-74
2022/03/19 12:41:26;;;;;;;72.97;51.22;;;20.00;44.90;;;;;;4985021;28;92083;-72
2022/03/19 12:43:55;;;;;;;75.63;51.00;;;20.00;45.20;;;;;;4978767;28;90697;-73
2022/03/19 12:46:27;;;;;;;73.10;51.08;;;20.00;45.30;;;;;;4965163;28;91088;-71